createdAt,value
2023-02-11T00:02:17.015Z,100.00
2023-02-11T00:04:43.175Z,100.00
2023-02-11T00:07:09.318Z,100.00
2023-02-11T00:09:35.479Z,100.00
2023-02-11T00:12:01.630Z,100.00
2023-02-11T00:14:27.760Z,100.00
2023-02-11T00:16:53.954Z,100.00
2023-02-11T00:19:20.176Z,100.00
2023-02-11T00:21:46.348Z,100.00
2023-02-11T00:24:12.493Z,100.00
2023-02-11T00:26:38.672Z,100.00
2023-02-11T00:29:04.788Z,100.00
2023-02-11T00:31:31.093Z,100.00
2023-02-11T00:33:57.254Z,100.00
2023-02-11T00:36:23.462Z,100.00
2023-02-11T00:38:49.641Z,100.00
2023-02-11T00:41:15.777Z,100.00
2023-02-11T00:43:41.913Z,100.00
2023-02-11T00:46:08.195Z,100.00
2023-02-11T00:48:34.369Z,100.00
2023-02-11T00:51:00.525Z,100.00
2023-02-11T00:53:26.706Z,100.00
2023-02-11T00:55:52.848Z,100.00
2023-02-11T00:58:19.036Z,100.00
2023-02-11T01:00:45.151Z,100.00
2023-02-11T01:03:11.319Z,100.00
2023-02-11T01:05:37.576Z,100.00
2023-02-11T01:08:03.721Z,100.00
2023-02-11T01:10:29.909Z,100.00
2023-02-11T01:12:56.059Z,100.00
2023-02-11T01:15:22.234Z,100.00
2023-02-11T01:17:48.378Z,100.00
2023-02-11T01:20:14.557Z,100.00
2023-02-11T01:22:40.937Z,100.00
2023-02-11T01:25:07.145Z,100.00
2023-02-11T01:27:33.299Z,100.00
2023-02-11T01:29:59.460Z,100.00
2023-02-11T01:32:25.604Z,100.00
2023-02-11T01:34:51.780Z,100.00
2023-02-11T01:37:17.929Z,100.00
2023-02-11T01:39:44.049Z,100.00
2023-02-11T01:42:10.239Z,100.00
2023-02-11T01:44:36.370Z,100.00
2023-02-11T01:47:02.556Z,100.00
2023-02-11T01:49:28.899Z,100.00
2023-02-11T01:51:55.062Z,100.00
2023-02-11T01:54:21.178Z,100.00
2023-02-11T01:56:47.376Z,100.00
2023-02-11T01:59:13.557Z,100.00
2023-02-11T02:01:39.788Z,100.00
2023-02-11T02:04:05.958Z,100.00
2023-02-11T02:06:32.171Z,100.00
2023-02-11T02:08:58.389Z,100.00
2023-02-11T02:11:24.579Z,100.00
2023-02-11T02:13:50.786Z,100.00
2023-02-11T02:16:16.944Z,100.00
2023-02-11T02:18:43.181Z,100.00
2023-02-11T02:21:09.369Z,100.00
2023-02-11T02:23:35.538Z,100.00
2023-02-11T02:26:01.710Z,100.00
2023-02-11T02:28:27.897Z,100.00
2023-02-11T02:30:54.139Z,100.00
2023-02-11T02:33:23.537Z,100.00
2023-02-11T02:35:50.047Z,100.00
2023-02-11T02:38:16.347Z,100.00
2023-02-11T02:40:42.502Z,100.00
2023-02-11T02:43:08.630Z,100.00
2023-02-11T02:45:34.833Z,100.00
2023-02-11T02:48:01.104Z,100.00
2023-02-11T02:50:27.278Z,100.00
2023-02-11T02:52:53.430Z,100.00
2023-02-11T02:55:19.620Z,100.00
2023-02-11T02:57:45.803Z,100.00
2023-02-11T03:00:12.024Z,100.00
2023-02-11T03:02:38.188Z,100.00
2023-02-11T03:05:04.382Z,100.00
2023-02-11T03:07:30.582Z,100.00
2023-02-11T03:09:56.765Z,100.00
2023-02-11T03:12:22.972Z,100.00
2023-02-11T03:14:49.122Z,100.00
2023-02-11T03:17:15.286Z,100.00
2023-02-11T03:19:41.411Z,100.00
2023-02-11T03:22:07.572Z,100.00
2023-02-11T03:24:33.748Z,100.00
2023-02-11T03:27:00.014Z,100.00
2023-02-11T03:29:26.398Z,100.00
2023-02-11T03:31:52.575Z,100.00
2023-02-11T03:34:18.793Z,100.00
2023-02-11T03:36:44.932Z,100.00
2023-02-11T03:39:11.128Z,100.00
2023-02-11T03:41:37.350Z,100.00
2023-02-11T03:44:03.542Z,100.00
2023-02-11T03:46:29.667Z,100.00
2023-02-11T03:48:55.816Z,100.00
2023-02-11T03:51:21.963Z,100.00
2023-02-11T03:53:48.109Z,100.00
2023-02-11T03:56:14.229Z,100.00
2023-02-11T03:58:40.440Z,100.00
2023-02-11T04:01:06.670Z,100.00
2023-02-11T04:03:32.904Z,100.00
2023-02-11T04:05:59.202Z,100.00
2023-02-11T04:08:25.386Z,100.00
2023-02-11T04:10:51.559Z,100.00
2023-02-11T04:13:17.734Z,100.00
2023-02-11T04:15:43.943Z,100.00
2023-02-11T04:18:10.112Z,100.00
2023-02-11T04:20:36.312Z,100.00
2023-02-11T04:23:02.492Z,100.00
2023-02-11T04:25:28.684Z,100.00
2023-02-11T04:27:54.986Z,100.00
2023-02-11T04:30:21.202Z,100.00
2023-02-11T04:32:47.330Z,100.00
2023-02-11T04:35:14.517Z,100.00
2023-02-11T04:37:43.763Z,100.00
2023-02-11T04:40:09.913Z,100.00
2023-02-11T04:42:36.043Z,100.00
2023-02-11T04:45:02.241Z,100.00
2023-02-11T04:47:28.476Z,100.00
2023-02-11T04:49:54.657Z,100.00
2023-02-11T04:52:20.887Z,100.00
2023-02-11T04:54:47.042Z,100.00
2023-02-11T04:57:14.388Z,100.00
2023-02-11T04:59:40.512Z,100.00
2023-02-11T05:02:06.654Z,100.00
2023-02-11T05:04:34.062Z,100.00
2023-02-11T05:07:00.250Z,100.00
2023-02-11T05:09:26.400Z,100.00
2023-02-11T05:11:52.580Z,100.00
2023-02-11T05:14:18.757Z,100.00
2023-02-11T05:16:44.948Z,100.00
2023-02-11T05:19:11.349Z,100.00
2023-02-11T05:21:50.350Z,100.00
2023-02-11T05:24:22.988Z,100.00
2023-02-11T05:26:49.186Z,100.00
2023-02-11T05:29:15.305Z,100.00
2023-02-11T05:31:41.446Z,100.00
2023-02-11T05:34:07.614Z,100.00
2023-02-11T05:36:33.795Z,100.00
2023-02-11T05:38:59.987Z,100.00
2023-02-11T05:41:26.116Z,100.00
2023-02-11T05:43:52.318Z,100.00
2023-02-11T05:46:18.450Z,100.00
2023-02-11T05:48:44.636Z,100.00
2023-02-11T05:51:10.842Z,100.00
2023-02-11T05:53:37.048Z,100.00
2023-02-11T05:56:03.226Z,100.00
2023-02-11T05:58:29.389Z,100.00
2023-02-11T06:00:55.513Z,100.00
2023-02-11T06:03:21.675Z,100.00
2023-02-11T06:05:48.047Z,100.00
2023-02-11T06:08:14.283Z,100.00
2023-02-11T06:10:40.478Z,100.00
2023-02-11T06:13:06.610Z,100.00
2023-02-11T06:15:32.795Z,100.00
2023-02-11T06:17:58.987Z,100.00
2023-02-11T06:20:25.184Z,100.00
2023-02-11T06:22:51.312Z,100.00
2023-02-11T06:25:17.459Z,100.00
2023-02-11T06:27:43.630Z,100.00
2023-02-11T06:30:09.875Z,100.00
2023-02-11T06:32:43.860Z,100.00
2023-02-11T06:35:12.248Z,100.00
2023-02-11T06:37:38.693Z,100.00
2023-02-11T06:40:04.861Z,100.00
2023-02-11T06:42:30.994Z,100.00
2023-02-11T06:44:57.123Z,100.00
2023-02-11T06:47:23.271Z,100.00
2023-02-11T06:49:49.430Z,100.00
2023-02-11T06:52:15.626Z,100.00
2023-02-11T06:54:41.810Z,100.00
2023-02-11T06:57:07.930Z,100.00
2023-02-11T06:59:34.161Z,100.00
2023-02-11T07:02:00.521Z,100.00
2023-02-11T07:04:26.711Z,100.00
2023-02-11T07:06:52.906Z,100.00
2023-02-11T07:09:19.077Z,100.00
2023-02-11T07:11:45.260Z,100.00
2023-02-11T07:14:11.431Z,100.00
2023-02-11T07:16:37.633Z,100.00
2023-02-11T07:21:54.265Z,100.00
2023-02-11T07:24:20.418Z,100.00
2023-02-11T07:26:46.624Z,100.00
2023-02-11T07:29:12.843Z,100.00
2023-02-11T07:31:39.095Z,100.00
2023-02-11T07:34:05.394Z,100.00
2023-02-11T07:36:31.518Z,100.00
2023-02-11T07:38:57.679Z,100.00
2023-02-11T07:41:23.815Z,100.00
2023-02-11T07:43:49.971Z,100.00
2023-02-11T07:46:19.229Z,100.00
2023-02-11T07:48:45.382Z,100.00
2023-02-11T07:51:11.570Z,100.00
2023-02-11T07:53:37.726Z,100.00
2023-02-11T07:56:03.914Z,100.00
2023-02-11T07:58:30.139Z,100.00
2023-02-11T08:00:56.369Z,100.00
2023-02-11T08:03:22.674Z,100.00
2023-02-11T08:05:49.256Z,100.00
2023-02-11T08:08:15.676Z,100.00
2023-02-11T08:10:41.840Z,100.00
2023-02-11T08:13:08.075Z,100.00
2023-02-11T08:15:34.279Z,100.00
2023-02-11T08:18:00.435Z,100.00
2023-02-11T08:20:26.589Z,100.00
2023-02-11T08:22:52.769Z,100.00
2023-02-11T08:25:18.924Z,100.00
2023-02-11T08:27:45.048Z,100.00
2023-02-11T08:30:11.242Z,100.00
2023-02-11T08:32:37.679Z,100.00
2023-02-11T08:35:03.869Z,100.00
2023-02-11T08:37:32.763Z,100.00
2023-02-11T08:39:59.308Z,100.00
2023-02-11T08:42:25.518Z,100.00
2023-02-11T08:44:51.705Z,100.00
2023-02-11T08:47:17.887Z,100.00
2023-02-11T08:49:44.099Z,100.00
2023-02-11T08:52:10.326Z,100.00
2023-02-11T08:54:36.531Z,100.00
2023-02-11T08:57:02.747Z,100.00
2023-02-11T08:59:28.954Z,100.00
2023-02-11T09:02:07.150Z,100.00
2023-02-11T09:04:33.383Z,100.00
2023-02-11T09:06:59.573Z,100.00
2023-02-11T09:09:25.768Z,100.00
2023-02-11T09:11:51.937Z,100.00
2023-02-11T09:14:18.069Z,100.00
2023-02-11T09:16:44.310Z,100.00
2023-02-11T09:19:10.512Z,100.00
2023-02-11T09:21:36.704Z,100.00
2023-02-11T09:24:02.936Z,100.00
2023-02-11T09:26:29.074Z,100.00
2023-02-11T09:28:55.218Z,98.36
2023-02-11T09:31:21.452Z,94.56
2023-02-11T09:33:47.662Z,85.60
2023-02-11T09:36:13.826Z,78.86
2023-02-11T09:38:40.014Z,76.04
2023-02-11T09:41:06.186Z,75.23
2023-02-11T09:43:32.347Z,73.72
2023-02-11T09:45:59.950Z,76.06
2023-02-11T09:48:26.157Z,75.70
2023-02-11T09:50:52.645Z,79.02
2023-02-11T09:53:19.036Z,84.13
2023-02-11T09:55:45.215Z,91.92
2023-02-11T09:58:11.363Z,89.91
2023-02-11T10:00:37.475Z,88.75
2023-02-11T10:03:03.623Z,82.31
2023-02-11T10:05:29.749Z,76.84
2023-02-11T10:07:55.912Z,78.31
2023-02-11T10:10:22.081Z,80.48
2023-02-11T10:12:48.289Z,84.54
2023-02-11T10:15:14.524Z,85.25
2023-02-11T10:17:40.725Z,81.57
2023-02-11T10:20:06.916Z,84.08
2023-02-11T10:22:33.101Z,90.96
2023-02-11T10:24:59.230Z,93.21
2023-02-11T10:27:25.460Z,87.69
2023-02-11T10:29:51.604Z,91.66
2023-02-11T10:32:17.752Z,91.54
2023-02-11T10:34:43.935Z,89.76
2023-02-11T10:37:10.345Z,86.05
2023-02-11T10:39:36.495Z,84.64
2023-02-11T10:42:02.657Z,82.96
2023-02-11T10:44:28.808Z,80.17
2023-02-11T10:46:54.976Z,81.34
2023-02-11T10:49:21.105Z,75.94
2023-02-11T10:51:47.306Z,74.49
2023-02-11T10:54:13.933Z,72.55
2023-02-11T10:56:40.221Z,71.33
2023-02-11T10:59:06.432Z,71.51
2023-02-11T11:01:32.686Z,71.19
2023-02-11T11:03:58.866Z,69.43
2023-02-11T11:06:25.339Z,69.32
2023-02-11T11:08:51.569Z,70.80
2023-02-11T11:11:17.825Z,73.46
2023-02-11T11:13:44.344Z,70.73
2023-02-11T11:16:10.514Z,72.67
2023-02-11T11:18:36.755Z,72.87
2023-02-11T11:21:02.966Z,65.51
2023-02-11T11:23:29.124Z,64.47
2023-02-11T11:25:55.294Z,61.36
2023-02-11T11:28:21.625Z,61.16
2023-02-11T11:30:47.807Z,62.74
2023-02-11T11:33:14.023Z,61.94
2023-02-11T11:35:40.194Z,64.50
2023-02-11T11:38:06.403Z,65.66
2023-02-11T11:40:32.560Z,67.61
2023-02-11T11:42:58.674Z,61.92
2023-02-11T11:45:24.853Z,58.87
2023-02-11T11:47:50.971Z,59.11
2023-02-11T11:50:18.513Z,60.47
2023-02-11T11:52:46.307Z,61.24
2023-02-11T11:55:12.493Z,64.88
2023-02-11T11:57:38.650Z,66.87
2023-02-11T12:00:04.779Z,70.66
2023-02-11T12:02:31.028Z,72.44
2023-02-11T12:04:57.206Z,73.23
2023-02-11T12:07:25.814Z,75.87
2023-02-11T12:09:52.188Z,75.60
2023-02-11T12:12:18.326Z,77.75
2023-02-11T12:14:44.526Z,76.31
2023-02-11T12:17:10.693Z,77.53
2023-02-11T12:19:36.842Z,80.10
2023-02-11T12:22:03.035Z,80.29
2023-02-11T12:24:29.268Z,80.44
2023-02-11T12:26:55.447Z,81.46
2023-02-11T12:29:21.629Z,80.49
2023-02-11T12:31:49.193Z,88.21
2023-02-11T12:34:15.447Z,88.92
2023-02-11T12:36:41.593Z,90.46
2023-02-11T12:39:07.802Z,92.84
2023-02-11T12:41:33.927Z,91.56
2023-02-11T12:44:00.136Z,92.74
2023-02-11T12:46:26.315Z,92.33
2023-02-11T12:48:52.510Z,87.68
2023-02-11T12:51:18.700Z,89.23
2023-02-11T12:53:44.848Z,92.04
2023-02-11T12:56:11.047Z,93.42
2023-02-11T12:58:44.830Z,88.30
2023-02-11T13:01:11.855Z,88.77
2023-02-11T13:03:38.074Z,80.74
2023-02-11T13:06:04.260Z,84.71
2023-02-11T13:08:30.442Z,88.21
2023-02-11T13:10:56.589Z,85.96
2023-02-11T13:13:22.773Z,80.79
2023-02-11T13:15:48.956Z,79.12
2023-02-11T13:18:18.795Z,82.36
2023-02-11T13:20:45.324Z,84.43
2023-02-11T13:23:11.530Z,85.27
2023-02-11T13:25:37.655Z,87.78
2023-02-11T13:28:03.902Z,89.91
2023-02-11T13:30:30.146Z,94.30
2023-02-11T13:32:56.371Z,95.14
2023-02-11T13:35:22.594Z,100.00
2023-02-11T13:37:48.728Z,100.00
2023-02-11T13:40:14.882Z,100.00
2023-02-11T13:42:41.012Z,100.00
2023-02-11T13:45:07.197Z,100.00
2023-02-11T13:47:33.385Z,100.00
2023-02-11T13:49:59.609Z,97.33
2023-02-11T13:52:27.406Z,92.29
2023-02-11T13:54:53.618Z,97.82
2023-02-11T13:57:19.801Z,100.00
2023-02-11T13:59:45.970Z,100.00
2023-02-11T14:02:12.217Z,100.00
2023-02-11T14:07:23.587Z,100.00
2023-02-11T14:09:49.724Z,100.00
2023-02-11T14:12:15.943Z,100.00
2023-02-11T14:14:42.071Z,100.00
2023-02-11T14:17:08.287Z,100.00
2023-02-11T14:19:34.645Z,100.00
2023-02-11T14:22:00.889Z,100.00
2023-02-11T14:24:34.341Z,100.00
2023-02-11T14:27:00.632Z,100.00
2023-02-11T14:32:16.228Z,100.00
2023-02-11T14:34:42.491Z,100.00
2023-02-11T14:37:08.666Z,100.00
2023-02-11T14:39:34.894Z,100.00
2023-02-11T14:42:01.121Z,100.00
2023-02-11T14:44:27.324Z,100.00
2023-02-11T14:46:56.617Z,100.00
2023-02-11T14:49:22.979Z,100.00
2023-02-11T14:51:49.183Z,100.00
2023-02-11T14:54:15.411Z,100.00
2023-02-11T14:56:41.633Z,100.00
2023-02-11T14:59:07.863Z,100.00
2023-02-11T15:01:34.191Z,100.00
2023-02-11T15:04:02.722Z,100.00
2023-02-11T15:09:21.262Z,100.00
2023-02-11T15:11:47.427Z,100.00
2023-02-11T15:14:13.628Z,100.00
2023-02-11T15:16:41.599Z,100.00
2023-02-11T15:19:14.649Z,100.00
2023-02-11T15:21:40.849Z,100.00
2023-02-11T15:24:10.026Z,100.00
2023-02-11T15:26:36.268Z,100.00
2023-02-11T15:29:02.434Z,100.00
2023-02-11T15:31:28.827Z,100.00
2023-02-11T15:33:55.493Z,100.00
2023-02-11T15:36:21.634Z,100.00
2023-02-11T15:38:47.800Z,100.00
2023-02-11T15:41:14.030Z,100.00
2023-02-11T15:43:40.208Z,100.00
2023-02-11T15:46:06.400Z,100.00
2023-02-11T15:48:32.580Z,100.00
2023-02-11T15:50:58.750Z,100.00
2023-02-11T15:53:25.076Z,100.00
2023-02-11T15:55:51.188Z,100.00
2023-02-11T15:58:17.342Z,100.00
2023-02-11T16:00:43.553Z,100.00
2023-02-11T16:03:09.687Z,100.00
2023-02-11T16:05:35.856Z,100.00
2023-02-11T16:08:01.982Z,100.00
2023-02-11T16:13:20.606Z,100.00
2023-02-11T16:15:46.796Z,100.00
2023-02-11T16:18:13.001Z,100.00
2023-02-11T16:20:39.137Z,100.00
2023-02-11T16:28:45.498Z,100.00
2023-02-11T16:36:45.669Z,100.00
2023-02-11T16:39:11.869Z,100.00
2023-02-11T16:41:38.017Z,100.00
2023-02-11T16:44:04.208Z,100.00
2023-02-11T16:46:30.424Z,100.00
2023-02-11T16:48:56.550Z,100.00
2023-02-11T16:51:22.719Z,100.00
2023-02-11T16:53:48.939Z,100.00
2023-02-11T16:56:15.140Z,100.00
2023-02-11T16:58:41.279Z,100.00
2023-02-11T17:01:07.432Z,100.00
2023-02-11T17:03:33.632Z,100.00
2023-02-11T17:06:06.092Z,100.00
2023-02-11T17:11:22.332Z,100.00
2023-02-11T17:13:48.656Z,100.00
2023-02-11T17:16:14.812Z,100.00
2023-02-11T17:18:41.024Z,100.00
2023-02-11T17:21:09.263Z,100.00
2023-02-11T17:23:35.425Z,100.00
2023-02-11T17:26:01.585Z,100.00
2023-02-11T17:28:27.804Z,100.00
2023-02-11T17:30:57.269Z,100.00
2023-02-11T17:33:23.590Z,100.00
2023-02-11T17:35:50.167Z,100.00
2023-02-11T17:38:16.750Z,100.00
2023-02-11T17:40:42.903Z,100.00
2023-02-11T17:43:09.064Z,100.00
2023-02-11T17:45:35.286Z,100.00
2023-02-11T17:48:01.431Z,100.00
2023-02-11T17:50:29.286Z,100.00
2023-02-11T17:52:55.737Z,100.00
2023-02-11T17:55:21.975Z,100.00
2023-02-11T17:57:48.140Z,100.00
2023-02-11T18:00:14.354Z,100.00
2023-02-11T18:02:42.629Z,100.00
2023-02-11T18:05:08.837Z,100.00
2023-02-11T18:07:35.005Z,100.00
2023-02-11T18:10:01.189Z,100.00
2023-02-11T18:12:27.420Z,100.00
2023-02-11T18:14:58.192Z,100.00
2023-02-11T18:17:24.640Z,100.00
2023-02-11T18:19:50.975Z,100.00
2023-02-11T18:22:17.180Z,100.00
2023-02-11T18:24:43.378Z,100.00
2023-02-11T18:27:09.547Z,100.00
2023-02-11T18:29:35.697Z,100.00
2023-02-11T18:32:01.915Z,100.00
2023-02-11T18:34:28.113Z,100.00
2023-02-11T18:36:55.779Z,100.00
2023-02-11T18:39:21.976Z,100.00
2023-02-11T18:41:48.185Z,100.00
2023-02-11T18:44:14.435Z,100.00
2023-02-11T18:46:43.381Z,100.00
2023-02-11T18:49:09.605Z,100.00
2023-02-11T18:51:35.772Z,100.00
2023-02-11T18:54:02.002Z,100.00
2023-02-11T18:56:28.184Z,100.00
2023-02-11T18:58:54.324Z,100.00
2023-02-11T19:01:20.553Z,100.00
2023-02-11T19:03:46.788Z,100.00
2023-02-11T19:06:12.956Z,100.00
2023-02-11T19:08:39.107Z,100.00
2023-02-11T19:11:05.297Z,100.00
2023-02-11T19:13:31.443Z,100.00
2023-02-11T19:15:57.599Z,100.00
2023-02-11T19:18:23.754Z,100.00
2023-02-11T19:20:49.936Z,100.00
2023-02-11T19:23:16.167Z,100.00
2023-02-11T19:25:42.371Z,100.00
2023-02-11T19:28:08.732Z,100.00
2023-02-11T19:30:38.731Z,100.00
2023-02-11T19:33:10.222Z,100.00
2023-02-11T19:35:36.865Z,100.00
2023-02-11T19:38:03.193Z,100.00
2023-02-11T19:40:30.833Z,100.00
2023-02-11T19:42:57.133Z,100.00
2023-02-11T19:45:23.477Z,100.00
2023-02-11T19:47:49.874Z,100.00
2023-02-11T19:50:16.375Z,100.00
2023-02-11T19:52:42.729Z,100.00
2023-02-11T19:55:08.926Z,100.00
2023-02-11T19:57:38.104Z,100.00
2023-02-11T20:00:04.548Z,100.00
2023-02-11T20:02:30.951Z,100.00
2023-02-11T20:04:57.172Z,100.00
2023-02-11T20:07:23.419Z,100.00
2023-02-11T20:09:49.703Z,100.00
2023-02-11T20:12:19.351Z,100.00
2023-02-11T20:14:50.421Z,100.00
2023-02-11T20:17:16.685Z,100.00
2023-02-11T20:19:46.642Z,100.00
2023-02-11T20:22:12.822Z,100.00
2023-02-11T20:24:39.020Z,100.00
2023-02-11T20:27:05.210Z,100.00
2023-02-11T20:29:31.411Z,100.00
2023-02-11T20:31:57.706Z,100.00
2023-02-11T20:34:24.001Z,100.00
2023-02-11T20:36:50.153Z,100.00
2023-02-11T20:39:16.339Z,100.00
2023-02-11T20:41:42.524Z,100.00
2023-02-11T20:44:08.721Z,100.00
2023-02-11T20:46:34.931Z,100.00
2023-02-11T20:49:01.110Z,100.00
2023-02-11T20:51:27.311Z,100.00
2023-02-11T20:53:53.438Z,100.00
2023-02-11T20:56:19.618Z,100.00
2023-02-11T20:58:45.779Z,100.00
2023-02-11T21:01:11.928Z,100.00
2023-02-11T21:03:38.115Z,100.00
2023-02-11T21:06:04.392Z,100.00
2023-02-11T21:08:30.535Z,100.00
2023-02-11T21:10:56.680Z,100.00
2023-02-11T21:13:22.873Z,100.00
2023-02-11T21:15:49.039Z,100.00
2023-02-11T21:18:15.208Z,100.00
2023-02-11T21:20:41.350Z,100.00
2023-02-11T21:23:07.529Z,100.00
2023-02-11T21:25:33.732Z,100.00
2023-02-11T21:27:59.968Z,100.00
2023-02-11T21:30:26.110Z,100.00
2023-02-11T21:32:52.418Z,100.00
2023-02-11T21:35:18.583Z,100.00
2023-02-11T21:37:44.756Z,100.00
2023-02-11T21:40:10.963Z,100.00
2023-02-11T21:42:37.126Z,100.00
2023-02-11T21:45:03.529Z,100.00
2023-02-11T21:47:29.710Z,100.00
2023-02-11T21:49:55.916Z,100.00
2023-02-11T21:52:22.042Z,100.00
2023-02-11T21:54:48.209Z,100.00
2023-02-11T21:57:14.404Z,100.00
2023-02-11T21:59:40.542Z,100.00
2023-02-11T22:02:06.687Z,100.00
2023-02-11T22:04:32.927Z,100.00
2023-02-11T22:06:59.096Z,100.00
2023-02-11T22:09:25.305Z,100.00
2023-02-11T22:11:51.461Z,100.00
2023-02-11T22:14:17.637Z,100.00
2023-02-11T22:16:43.854Z,100.00
2023-02-11T22:19:10.730Z,100.00
2023-02-11T22:21:36.962Z,100.00
2023-02-11T22:24:03.144Z,100.00
2023-02-11T22:26:29.290Z,100.00
2023-02-11T22:28:55.438Z,100.00
2023-02-11T22:31:21.618Z,100.00
2023-02-11T22:33:47.888Z,100.00
2023-02-11T22:36:14.067Z,100.00
2023-02-11T22:38:40.232Z,100.00
2023-02-11T22:41:06.363Z,100.00
2023-02-11T22:43:32.545Z,100.00
2023-02-11T22:45:58.950Z,100.00
2023-02-11T22:48:25.240Z,100.00
2023-02-11T22:50:51.410Z,100.00
2023-02-11T22:53:17.563Z,100.00
2023-02-11T22:55:43.780Z,100.00
2023-02-11T22:58:09.947Z,100.00
2023-02-11T23:00:36.168Z,100.00
2023-02-11T23:03:02.359Z,100.00
2023-02-11T23:05:28.575Z,100.00
2023-02-11T23:07:54.740Z,100.00
2023-02-11T23:10:20.931Z,100.00
2023-02-11T23:12:47.142Z,100.00
2023-02-11T23:15:13.357Z,100.00
2023-02-11T23:17:39.578Z,100.00
2023-02-11T23:20:05.784Z,100.00
2023-02-11T23:22:31.924Z,100.00
2023-02-11T23:24:58.056Z,100.00
2023-02-11T23:27:26.255Z,100.00
2023-02-11T23:29:52.400Z,100.00
2023-02-11T23:32:18.555Z,100.00
2023-02-11T23:34:44.771Z,100.00
2023-02-11T23:37:10.916Z,100.00
2023-02-11T23:39:37.309Z,100.00
2023-02-11T23:42:06.377Z,100.00
2023-02-11T23:44:33.735Z,100.00
2023-02-11T23:47:02.801Z,100.00
2023-02-11T23:49:29.026Z,100.00
2023-02-11T23:51:55.234Z,100.00
2023-02-11T23:54:21.415Z,100.00
2023-02-11T23:56:47.569Z,100.00
2023-02-11T23:59:13.764Z,100.00
